• Join FlightAware (Why Join?)
  • Login
  • US Flag 
10:12AM EDT


 

Airport Tracker/Info


-or-


 

Live Flight TrackerFlight Track Log ✈ N2744X ✈ 18-Jun-2013 ✈ 5B2 - KMGJ

Flight Track Log - Related Links

Times and Time Zones

All times are in EDT time to prevent confusion due to time zone crossing. See the N2744X flight status page for this flight to view local times or setup timezone preferences in your user account.

Time Position Orientation Groundspeed Altitude Reporting Facility
EDT Latitude Longitude Course Direction KTS MPH feet Rate Location/Type
03:19PM 42.9728 -73.8817 151° Southeast 144 166 5,300  Level Boston Center
03:20PM 42.9336 -73.8522 151° Southeast 159 183 6,100 840 Climbing Boston Center
03:21PM 42.8919 -73.8372 165° South 160 184 7,000 840 Climbing Boston Center
03:22PM 42.8525 -73.8278 170° South 155 178 7,800 480 Climbing Boston Center
03:23PM 42.8025 -73.8183 172° South 169 194 8,000 60 Climbing Boston Center
03:24PM 42.7528 -73.8058 170° South 151 174 8,000  Level Boston Center
03:25PM 42.7028 -73.8103 184° South 188 216 8,000  Level Boston Center
03:26PM 42.6528 -73.8119 181° South 181 208 8,000  Level Boston Center
03:27PM 42.6025 -73.8136 181° South 178 205 8,000 -60 Level Boston Center
03:28PM 42.5506 -73.8125 179° South 178 205 7,900 -60 Descending Boston Center
03:29PM 42.4983 -73.8114 179° South 180 207 7,900  Level Boston Center
03:30PM 42.4442 -73.8131 181° South 182 209 7,900  Level Boston Center
03:32PM 42.3939 -73.8289 193° South 177 204 7,900  Level Boston Center
03:33PM 42.3581 -73.8675 219° Southwest 166 191 7,900  Level Boston Center
03:34PM 42.3261 -73.9172 229° Southwest 177 204 7,900  Level Boston Center
03:35PM 42.2922 -73.9614 224° Southwest 177 204 7,900  Level Boston Center
03:36PM 42.2625 -74.0111 231° Southwest 177 204 7,900  Level Boston Center
03:37PM 42.2306 -74.0581 227° Southwest 177 204 7,900  Level Boston Center
03:38PM 42.2006 -74.1106 232° Southwest 177 204 8,000  Climbing Boston Center
03:39PM 42.1747 -74.1603 235° Southwest 177 204 7,900 -60 Descending Boston Center
03:40PM 42.1531 -74.2183 243° Southwest 172 198 7,900  Level Boston Center
03:41PM 42.1292 -74.2736 240° Southwest 172 198 7,900  Level Boston Center
03:42PM 42.1014 -74.3233 233° Southwest 177 204 7,900  Level Boston Center
03:43PM 42.0692 -74.3725 229° Southwest 177 204 7,900 -240 Level Boston Center
03:44PM 42.0167 -74.4500 228° Southwest 177 204 7,300 -420 Descending New York TRACON
03:45PM 41.9833 -74.5000 228° Southwest 181 208 6,900 -480 Descending New York TRACON
03:46PM 41.9500 -74.5500 228° Southwest 181 208 6,400 -540 Descending New York TRACON
03:47PM 41.9167 -74.6000 228° Southwest 183 211 5,900 -360 Descending New York TRACON
03:48PM 41.8667 -74.6333 206° Southwest 186 214 5,700 -540 Descending New York TRACON
03:49PM 41.8167 -74.6333 180° South 200 230 4,900 -300 Descending New York TRACON
03:50PM 41.7667 -74.6500 194° South 180 207 5,100  Climbing New York TRACON
03:51PM 41.7167 -74.6333 166° South 174 200 5,000 -60 Descending New York TRACON
03:52PM 41.6667 -74.6333 180° South 168 193 5,000  Level New York TRACON
03:53PM 41.6333 -74.6167 160° South 174 200 5,100 -120 Climbing New York TRACON
03:54PM 41.6000 -74.5667 132° Southeast 181 208 4,800 -660 Descending New York TRACON
03:55PM 41.5833 -74.5000 108° East 193 222 3,800 -900 Descending New York TRACON
03:56PM 41.5667 -74.4333 108° East 182 209 3,000 -600 Descending New York TRACON
03:57PM 41.5333 -74.3833 132° Southeast 160 184 2,600 -480 Descending New York TRACON
03:58PM 41.5167 -74.3333 114° Southeast 151 174 2,100 -660 Descending New York TRACON
03:59PM 41.5000 -74.3000 124° Southeast 108 124 1,300 -840 Descending New York TRACON
04:01PM 41.5100 -74.2646 113° Southeast  Level Estimated
04:08PM 41.5100 -74.2646 113° Southeast  Level Estimated
04:09PM 41.5100 -74.2646 113° Southeast  Level Estimated
04:10PM 41.5100 -74.2646 113° Southeast  Level Estimated